LRBM

Details ICAO LRBM (BAY)
Name TAUTII MAGHERAUS
Region Romania
Timezone Europe/Bucharest (UTC+3.0)
Plans Departing 5
Arriving 11
Stats Elevation 605 ft / 184 m (AMSL)
Location 47.658391° 23.470022°
Runways 1
Magnetic Variation 5.684° E
Sunrise 2018-05-24 02:40:19 UTC / 2018-05-24 05:40:19 Local
Sunset 2018-05-24 18:08:27 UTC / 2018-05-24 21:08:27 Local
Advertisement - Login to hide

Runways

ID Width Length Bearing (true) Bearing (mag) Surface Threshold Offset Overrun Length
10 98 ft / 30 m 5,853 ft / 1,784 m 99.13° 93.45° Concrete 0 ft / 0 m 0 ft / 0 m
28 98 ft / 30 m 5,853 ft / 1,784 m 279.15° 273.47° Concrete 0 ft / 0 m 0 ft / 0 m

Map

Weather


0- 5 10 15 20 25 30 35+ Temperature / ° C

Clouds and Precipitation
Forecast for 2018-05-24 06:00 UTC. Updated 2 hours ago

Ground ~20,000 ft ~40,000 ft Winds

METAR

LRBM 240630Z 15003KT 110V180 CAVOK 21/14 Q1018

TAF

Not found

Frequencies

Tower 118.10 MHz BAIA MARE TWR
Approach 118.85 MHz BAIA MARE PRECISION
Warning: Do not use this data for real-world aviation or navigation. No guarantee of current accuracy is given.